createdAt,value
2022-08-23T00:02:36.000Z,69.23
2022-08-23T00:07:35.000Z,68.79
2022-08-23T00:12:34.000Z,72.26
2022-08-23T00:17:43.000Z,69.26
2022-08-23T00:22:34.000Z,69.31
2022-08-23T00:27:35.000Z,69.31
2022-08-23T00:32:35.000Z,68.35
2022-08-23T00:37:35.000Z,68.42
2022-08-23T00:42:35.000Z,70.21
2022-08-23T00:47:35.000Z,69.17
2022-08-23T00:52:34.000Z,69.3
2022-08-23T00:57:35.000Z,69.07
2022-08-23T01:02:35.000Z,71.04
2022-08-23T01:07:34.000Z,69.35
2022-08-23T01:12:43.000Z,68.54
2022-08-23T01:17:34.000Z,69.57
2022-08-23T01:22:35.000Z,69.53
2022-08-23T01:27:34.000Z,73.87
2022-08-23T01:32:35.000Z,70.75
2022-08-23T01:37:34.000Z,67.54
2022-08-23T01:42:34.000Z,67.54
2022-08-23T01:47:35.000Z,69.14
2022-08-23T01:57:35.000Z,67.76
2022-08-23T02:02:35.000Z,67.76
2022-08-23T02:12:35.000Z,67.92
2022-08-23T02:17:35.000Z,67.92
2022-08-23T02:22:35.000Z,67.48
2022-08-23T02:27:35.000Z,68.48
2022-08-23T02:32:37.000Z,68.37
2022-08-23T02:37:35.000Z,68.14
2022-08-23T02:42:34.000Z,69.11
2022-08-23T02:47:35.000Z,68.3
2022-08-23T02:52:35.000Z,69.3
2022-08-23T02:57:34.000Z,69.91
2022-08-23T03:02:35.000Z,70.09
2022-08-23T03:07:35.000Z,70.91
2022-08-23T03:12:35.000Z,71.75
2022-08-23T03:17:34.000Z,70.96
2022-08-23T03:22:35.000Z,73.23
2022-08-23T03:27:34.000Z,74.72
2022-08-23T03:32:35.000Z,74.72
2022-08-23T03:37:34.000Z,75.01
2022-08-23T03:42:41.000Z,77.17
2022-08-23T03:47:35.000Z,76.57
2022-08-23T03:52:35.000Z,77.77
2022-08-23T03:57:34.000Z,77.71
2022-08-23T04:02:35.000Z,78.44
2022-08-23T04:07:35.000Z,78.97
2022-08-23T04:12:35.000Z,79.43
2022-08-23T04:17:34.000Z,79.23
2022-08-23T04:22:34.000Z,80.24
2022-08-23T04:27:35.000Z,78.8
2022-08-23T04:32:38.000Z,80.54
2022-08-23T04:37:35.000Z,77.32
2022-08-23T04:42:34.000Z,77.04
2022-08-23T04:47:34.000Z,77.04
2022-08-23T04:52:35.000Z,75.69
2022-08-23T04:57:35.000Z,73.58
2022-08-23T05:02:35.000Z,71
2022-08-23T05:07:52.000Z,69.63
2022-08-23T05:12:34.000Z,68.35
2022-08-23T05:17:35.000Z,67.53
2022-08-23T05:22:34.000Z,64.43
2022-08-23T05:27:35.000Z,63.53
2022-08-23T05:32:35.000Z,63.1
2022-08-23T05:37:34.000Z,61.19
2022-08-23T05:42:35.000Z,60.41
2022-08-23T05:47:35.000Z,59.37
2022-08-23T05:52:35.000Z,53.73
2022-08-23T05:57:35.000Z,52.41
2022-08-23T06:02:35.000Z,52.41
2022-08-23T06:07:35.000Z,52.55
2022-08-23T06:12:35.000Z,51.31
2022-08-23T06:17:35.000Z,49.84
2022-08-23T06:22:34.000Z,48.89
2022-08-23T06:27:34.000Z,47.86
2022-08-23T06:37:35.000Z,45.49
2022-08-23T06:42:48.000Z,45.49
2022-08-23T06:47:35.000Z,45.71
2022-08-23T06:52:35.000Z,44.44
2022-08-23T06:57:34.000Z,43.66
2022-08-23T07:07:51.000Z,38.46
2022-08-23T07:12:35.000Z,38.47
2022-08-23T07:17:34.000Z,38.47
2022-08-23T07:22:34.000Z,36.82
2022-08-23T07:27:35.000Z,33.95
2022-08-23T07:32:35.000Z,32.19
2022-08-23T07:37:35.000Z,32.39
2022-08-23T07:42:35.000Z,30.09
2022-08-23T07:47:35.000Z,29.63
2022-08-23T07:52:35.000Z,27.32
2022-08-23T07:57:34.000Z,25.57
2022-08-23T08:02:35.000Z,25.7
2022-08-23T08:07:36.000Z,25.85
2022-08-23T08:12:34.000Z,24.05
2022-08-23T08:17:37.000Z,23.82
2022-08-23T08:22:34.000Z,23.15
2022-08-23T08:27:34.000Z,22.42
2022-08-23T08:32:35.000Z,22.42
2022-08-23T08:37:34.000Z,22.95
2022-08-23T08:42:35.000Z,24.13
2022-08-23T08:47:35.000Z,23.59
2022-08-23T08:52:35.000Z,23.74
2022-08-23T08:57:37.000Z,24.44
2022-08-23T09:02:43.000Z,24.7
2022-08-23T09:07:41.000Z,22.3
2022-08-23T09:12:35.000Z,21.49
2022-08-23T09:17:35.000Z,18.89
2022-08-23T09:22:35.000Z,18.05
2022-08-23T09:27:35.000Z,17.37
2022-08-23T09:32:34.000Z,16.85
2022-08-23T09:37:35.000Z,14.85
2022-08-23T09:42:35.000Z,15.74
2022-08-23T09:47:35.000Z,15.74
2022-08-23T09:57:34.000Z,15.01
2022-08-23T10:02:37.000Z,13.01
2022-08-23T10:07:35.000Z,13.87
2022-08-23T10:12:35.000Z,15.73
2022-08-23T10:17:34.000Z,13.7
2022-08-23T10:22:35.000Z,13.54
2022-08-23T10:27:35.000Z,14.63
2022-08-23T10:32:35.000Z,15.18
2022-08-23T10:37:34.000Z,15.5
2022-08-23T10:42:34.000Z,15.26
2022-08-23T10:47:35.000Z,16.45
2022-08-23T10:52:35.000Z,16.45
2022-08-23T10:57:35.000Z,16.9
2022-08-23T11:02:35.000Z,16.29
2022-08-23T11:07:35.000Z,16.75
2022-08-23T11:12:35.000Z,16.55
2022-08-23T11:17:35.000Z,16.18
2022-08-23T11:22:35.000Z,14.77
2022-08-23T11:27:35.000Z,16.19
2022-08-23T11:32:39.000Z,17.67
2022-08-23T11:37:35.000Z,19.47
2022-08-23T11:42:34.000Z,18.38
2022-08-23T11:47:34.000Z,18.03
2022-08-23T11:52:35.000Z,19.08
2022-08-23T11:57:35.000Z,20.33
2022-08-23T12:02:35.000Z,21.72
2022-08-23T12:12:35.000Z,20.89
2022-08-23T12:17:34.000Z,22.13
2022-08-23T12:22:35.000Z,22.13
2022-08-23T12:27:35.000Z,18.99
2022-08-23T12:32:40.000Z,19.19
2022-08-23T12:37:35.000Z,20.2
2022-08-23T12:42:35.000Z,19.61
2022-08-23T12:47:35.000Z,18.58
2022-08-23T12:52:35.000Z,18.04
2022-08-23T12:57:34.000Z,18.12
2022-08-23T13:02:34.000Z,18.13
2022-08-23T13:07:35.000Z,16.03
2022-08-23T13:12:34.000Z,15.96
2022-08-23T13:17:35.000Z,16.46
2022-08-23T13:22:35.000Z,15.41
2022-08-23T13:27:35.000Z,13.73
2022-08-23T13:32:37.000Z,15.05
2022-08-23T13:37:35.000Z,15.05
2022-08-23T13:42:34.000Z,13.54
2022-08-23T13:47:35.000Z,14.32
2022-08-23T13:53:23.000Z,13.07
2022-08-23T13:57:40.000Z,14.45
2022-08-23T14:02:34.000Z,15.67
2022-08-23T14:07:35.000Z,15.91
2022-08-23T14:12:37.000Z,13.68
2022-08-23T14:17:35.000Z,13.78
2022-08-23T14:22:35.000Z,14.1
2022-08-23T14:27:35.000Z,13.77
2022-08-23T14:32:35.000Z,15.56
2022-08-23T14:38:06.000Z,18.94
2022-08-23T14:42:34.000Z,24.52
2022-08-23T14:47:34.000Z,26.36
2022-08-23T14:52:35.000Z,26.36
2022-08-23T14:57:35.000Z,28.16
2022-08-23T15:07:35.000Z,26.74
2022-08-23T15:13:05.000Z,26.67
2022-08-23T15:17:41.000Z,29.05
2022-08-23T15:22:36.000Z,32.35
2022-08-23T15:27:34.000Z,35.84
2022-08-23T15:32:36.000Z,42.97
2022-08-23T15:37:34.000Z,46.12
2022-08-23T15:42:35.000Z,48.34
2022-08-23T15:47:35.000Z,49.94
2022-08-23T15:52:35.000Z,52.59
2022-08-23T15:57:37.000Z,53.41
2022-08-23T16:02:34.000Z,53.08
2022-08-23T16:07:35.000Z,53.08
2022-08-23T16:12:35.000Z,55.63
2022-08-23T16:17:35.000Z,58.54
2022-08-23T16:22:35.000Z,61.94
2022-08-23T16:27:35.000Z,65.19
2022-08-23T16:32:35.000Z,66.05
2022-08-23T16:37:35.000Z,65.38
2022-08-23T16:42:35.000Z,66.03
2022-08-23T16:47:35.000Z,65.27
2022-08-23T16:52:44.000Z,64.28
2022-08-23T16:57:35.000Z,65.35
2022-08-23T17:02:34.000Z,67.23
2022-08-23T17:07:35.000Z,64.99
2022-08-23T17:12:34.000Z,68.23
2022-08-23T17:22:35.000Z,67.32
2022-08-23T17:27:35.000Z,68.73
2022-08-23T17:32:35.000Z,69.97
2022-08-23T17:37:35.000Z,69.97
2022-08-23T17:42:35.000Z,68.31
2022-08-23T17:47:35.000Z,73.75
2022-08-23T17:52:34.000Z,74.1
2022-08-23T17:57:35.000Z,70.97
2022-08-23T18:02:35.000Z,74.58
2022-08-23T18:12:35.000Z,74.17
2022-08-23T18:17:35.000Z,75.71
2022-08-23T18:22:34.000Z,77.75
2022-08-23T18:27:35.000Z,77.13
2022-08-23T18:32:35.000Z,77.13
2022-08-23T18:42:34.000Z,77.67
2022-08-23T18:47:35.000Z,81.16
2022-08-23T18:52:36.000Z,84.15
2022-08-23T18:57:35.000Z,85.07
2022-08-23T19:02:34.000Z,83.64
2022-08-23T19:07:34.000Z,84.57
2022-08-23T19:12:34.000Z,84.57
2022-08-23T19:17:35.000Z,81.45
2022-08-23T19:22:35.000Z,77.93
2022-08-23T19:27:35.000Z,79.51
2022-08-23T19:32:35.000Z,82.95
2022-08-23T19:37:36.000Z,84.84
2022-08-23T19:42:34.000Z,86.42
2022-08-23T19:47:38.000Z,86.93
2022-08-23T19:52:35.000Z,87.31
2022-08-23T19:57:35.000Z,86.97
2022-08-23T20:02:35.000Z,87.24
2022-08-23T20:07:35.000Z,91.32
2022-08-23T20:12:34.000Z,91.88
2022-08-23T20:17:35.000Z,91.44
2022-08-23T20:22:35.000Z,92.35
2022-08-23T20:27:41.000Z,92.35
2022-08-23T20:32:34.000Z,94.11
2022-08-23T20:37:35.000Z,93.31
2022-08-23T20:42:34.000Z,93.33
2022-08-23T20:47:35.000Z,91.06
2022-08-23T20:52:35.000Z,92.26
2022-08-23T20:57:38.000Z,91.46
2022-08-23T21:02:34.000Z,89.86
2022-08-23T21:07:37.000Z,91.85
2022-08-23T21:12:34.000Z,93.52
2022-08-23T21:17:35.000Z,93.27
2022-08-23T21:22:42.000Z,95.01
2022-08-23T21:27:35.000Z,97.21
2022-08-23T21:32:35.000Z,94.59
2022-08-23T21:37:35.000Z,97.42
2022-08-23T21:42:35.000Z,97.42
2022-08-23T21:47:35.000Z,89.56
2022-08-23T21:52:35.000Z,87.38
2022-08-23T21:57:35.000Z,85.59
2022-08-23T22:07:34.000Z,86.12
2022-08-23T22:12:35.000Z,83.97
2022-08-23T22:17:35.000Z,83.97
2022-08-23T22:22:35.000Z,84.9
2022-08-23T22:27:35.000Z,85.31
2022-08-23T22:32:35.000Z,84.62
2022-08-23T22:37:35.000Z,84.36
2022-08-23T22:42:35.000Z,86.86
2022-08-23T22:47:35.000Z,92.41
2022-08-23T22:52:35.000Z,86.17
2022-08-23T22:57:35.000Z,82.53
2022-08-23T23:07:35.000Z,78.9
2022-08-23T23:12:34.000Z,78.86
2022-08-23T23:17:36.000Z,78.14
2022-08-23T23:22:35.000Z,78.49
2022-08-23T23:27:34.000Z,77.26
2022-08-23T23:32:35.000Z,77.64
2022-08-23T23:37:35.000Z,77.49
2022-08-23T23:42:35.000Z,77.07
2022-08-23T23:47:34.000Z,77.84
2022-08-23T23:52:34.000Z,77.36
2022-08-23T23:57:35.000Z,78.42
